Time;durP1;ratioP1;P1;durP2;ratioP2;P2;SDS_P1;SDS_P2;PMS_P1;PMS_P2;Temp;Humidity;BMP_temperature;BMP_pressure;BME280_temperature;BME280_humidity;BME280_pressure;Samples;Min_cycle;Max_cycle;Signal;HPM_P1;HPM_P2
2022/05/03 00:01:42;;;;;;;29.03;17.30;;;11.70;99.90;;;;;;5035171;28;20696;-72
2022/05/03 00:04:16;;;;;;;30.20;18.70;;;11.70;99.90;;;;;;5019131;28;20605;-72
2022/05/03 00:07:06;;;;;;;32.27;18.67;;;11.70;99.90;;;;;;5035175;28;20221;-72
2022/05/03 00:10:03;;;;;;;29.13;18.20;;;11.70;99.90;;;;;;5035263;28;20626;-72
2022/05/03 00:12:34;;;;;;;31.47;18.40;;;11.60;99.90;;;;;;5035183;28;20229;-72
2022/05/03 00:15:03;;;;;;;28.43;18.00;;;11.60;99.90;;;;;;5052901;28;20241;-72
2022/05/03 00:17:32;;;;;;;29.80;18.30;;;11.60;99.90;;;;;;5035264;28;20244;-72
2022/05/03 00:19:59;;;;;;;29.03;17.17;;;11.60;99.90;;;;;;5035247;28;20608;-72
2022/05/03 00:22:28;;;;;;;30.63;17.87;;;11.60;99.90;;;;;;5044633;28;20260;-72
2022/05/03 00:24:55;;;;;;;31.37;17.87;;;11.60;99.90;;;;;;5036566;28;20537;-72
2022/05/03 00:27:27;;;;;;;26.30;17.30;;;11.60;99.90;;;;;;5039059;28;20213;-72
2022/05/03 00:29:55;;;;;;;30.23;18.20;;;11.60;99.90;;;;;;5039130;28;20254;-71
2022/05/03 00:32:23;;;;;;;27.67;17.87;;;11.50;99.90;;;;;;5038921;28;20252;-72
2022/05/03 00:34:50;;;;;;;29.57;18.23;;;11.60;99.90;;;;;;5038707;28;20261;-71
2022/05/03 00:37:17;;;;;;;27.63;17.47;;;11.50;99.90;;;;;;5038631;28;20198;-71
2022/05/03 00:39:45;;;;;;;31.47;17.90;;;11.50;99.90;;;;;;5039252;28;20203;-72
2022/05/03 00:42:20;;;;;;;30.77;18.83;;;11.50;99.90;;;;;;5038689;28;20327;-71
2022/05/03 00:45:28;;;;;;;29.10;17.97;;;11.60;99.90;;;;;;5038750;28;20244;-72
2022/05/03 00:48:19;;;;;;;28.73;17.10;;;11.60;99.90;;;;;;5056345;28;20202;-72
2022/05/03 00:51:10;;;;;;;31.53;18.60;;;11.60;99.90;;;;;;5038751;28;20245;-71
2022/05/03 00:53:57;;;;;;;26.27;17.60;;;11.60;99.90;;;;;;5038502;28;20201;-71
2022/05/03 00:56:30;;;;;;;31.90;18.20;;;11.60;99.90;;;;;;5038312;28;20234;-71
2022/05/03 00:59:21;;;;;;;29.03;17.60;;;11.60;99.90;;;;;;5038374;28;20284;-72
2022/05/03 01:02:06;;;;;;;27.80;17.37;;;11.50;99.90;;;;;;5022052;28;20688;-71
2022/05/03 01:05:01;;;;;;;27.90;17.37;;;11.50;99.90;;;;;;5021989;28;20224;-72
2022/05/03 01:07:35;;;;;;;26.67;18.00;;;11.50;99.90;;;;;;5056205;28;20187;-71
2022/05/03 01:10:17;;;;;;;28.07;17.47;;;11.40;99.90;;;;;;5038343;28;20684;-71
2022/05/03 01:12:59;;;;;;;31.17;17.80;;;11.30;99.90;;;;;;5038418;28;20203;-71
2022/05/03 01:15:35;;;;;;;28.73;18.10;;;11.20;99.90;;;;;;5038432;28;20253;-71
2022/05/03 01:18:14;;;;;;;30.57;17.33;;;11.20;99.90;;;;;;5038277;28;20592;-72
2022/05/03 01:20:50;;;;;;;27.70;17.77;;;11.20;99.90;;;;;;5055875;28;20210;-72
2022/05/03 01:23:36;;;;;;;31.17;18.07;;;11.20;99.90;;;;;;5037890;28;20264;-72
2022/05/03 01:26:40;;;;;;;32.10;18.13;;;11.20;99.90;;;;;;5055834;28;20658;-71
2022/05/03 01:29:19;;;;;;;30.40;18.17;;;11.20;99.90;;;;;;5037869;28;20210;-72
2022/05/03 01:31:47;;;;;;;32.63;18.70;;;11.20;99.90;;;;;;5037837;28;20579;-72
2022/05/03 01:34:19;;;;;;;31.03;18.53;;;11.10;99.90;;;;;;5037669;28;20195;-72
2022/05/03 01:36:46;;;;;;;30.93;18.70;;;11.10;99.90;;;;;;5055417;28;20202;-72
2022/05/03 01:39:32;;;;;;;30.43;19.57;;;11.10;99.90;;;;;;5037801;28;20231;-72
2022/05/03 01:42:35;;;;;;;28.83;18.47;;;10.90;99.90;;;;;;5037574;28;20701;-71
2022/05/03 01:45:08;;;;;;;31.50;18.63;;;11.00;99.90;;;;;;5003593;28;20541;-71
2022/05/03 01:48:16;;;;;;;33.23;19.47;;;11.00;99.90;;;;;;5038102;28;20706;-71
2022/05/03 01:50:58;;;;;;;31.93;19.20;;;10.90;99.90;;;;;;5037587;28;20226;-72
2022/05/03 01:53:42;;;;;;;28.73;18.53;;;10.90;99.90;;;;;;5037465;28;20199;-72
2022/05/03 01:56:25;;;;;;;30.03;19.40;;;10.90;99.90;;;;;;5037271;28;20195;-72
2022/05/03 01:59:20;;;;;;;34.37;19.77;;;10.80;99.90;;;;;;5055022;28;20253;-72
2022/05/03 02:02:00;;;;;;;30.87;19.30;;;10.70;99.90;;;;;;5037540;28;20230;-72
2022/05/03 02:05:06;;;;;;;31.00;19.17;;;10.70;99.90;;;;;;5037049;28;20253;-73
2022/05/03 02:07:47;;;;;;;32.30;19.67;;;10.70;99.90;;;;;;5036845;28;20225;-73
2022/05/03 02:10:42;;;;;;;32.80;20.00;;;10.60;99.90;;;;;;5037213;28;20642;-71
2022/05/03 02:13:28;;;;;;;31.73;19.93;;;10.60;99.90;;;;;;5037216;28;20222;-72
2022/05/03 02:16:07;;;;;;;32.30;19.50;;;10.50;99.90;;;;;;5036971;28;20233;-72
2022/05/03 02:19:04;;;;;;;33.40;19.50;;;10.50;99.90;;;;;;5037071;28;20191;-72
2022/05/03 02:22:00;;;;;;;33.83;19.57;;;10.40;99.90;;;;;;5037054;28;20203;-72
2022/05/03 02:24:55;;;;;;;31.10;19.33;;;10.40;99.90;;;;;;5036546;28;20297;-72
2022/05/03 02:27:25;;;;;;;33.23;19.67;;;10.50;99.90;;;;;;5036562;28;20237;-72
2022/05/03 02:29:56;;;;;;;33.73;19.93;;;10.50;99.90;;;;;;5020682;28;20231;-73
2022/05/03 02:32:56;;;;;;;30.80;19.23;;;10.40;99.90;;;;;;5036818;28;20728;-72
2022/05/03 02:35:24;;;;;;;32.47;19.20;;;10.30;99.90;;;;;;5036523;28;20213;-72
2022/05/03 02:37:56;;;;;;;35.43;20.13;;;10.20;99.90;;;;;;5036683;28;20703;-72
2022/05/03 02:40:30;;;;;;;32.50;20.30;;;10.20;99.90;;;;;;5036498;28;20234;-72
2022/05/03 02:42:57;;;;;;;33.80;19.07;;;10.20;99.90;;;;;;5036501;28;20234;-71
2022/05/03 02:45:25;;;;;;;32.50;20.07;;;10.20;99.90;;;;;;5036413;28;20213;-72
2022/05/03 02:48:05;;;;;;;33.60;19.10;;;10.20;99.90;;;;;;5035449;28;20234;-71
2022/05/03 02:50:50;;;;;;;32.63;18.77;;;10.20;99.90;;;;;;5054014;28;20244;-71
2022/05/03 02:53:32;;;;;;;30.67;19.07;;;10.10;99.90;;;;;;5036320;28;20253;-71
2022/05/03 02:56:06;;;;;;;31.53;18.73;;;10.10;99.90;;;;;;5019230;28;20203;-71
2022/05/03 02:58:33;;;;;;;32.77;19.47;;;10.00;99.90;;;;;;5053913;28;20621;-71
2022/05/03 03:04:30;;;;;;;32.50;18.93;;;10.10;99.90;;;;;;5036195;28;20199;-72
2022/05/03 03:06:59;;;;;;;28.50;17.10;;;10.20;99.90;;;;;;5035926;28;20435;-71
2022/05/03 03:09:49;;;;;;;28.27;17.27;;;10.20;99.90;;;;;;5053905;28;20632;-72
2022/05/03 03:12:40;;;;;;;26.33;17.33;;;10.10;99.90;;;;;;4956937;28;20193;-72
2022/05/03 03:15:09;;;;;;;31.73;17.30;;;10.10;99.90;;;;;;4972670;28;20229;-71
2022/05/03 03:17:41;;;;;;;29.07;17.43;;;10.00;99.90;;;;;;4973463;28;20200;-71
2022/05/03 03:20:09;;;;;;;26.37;16.57;;;9.90;99.90;;;;;;4973336;28;20213;-71
2022/05/03 03:22:41;;;;;;;26.10;16.33;;;9.80;99.90;;;;;;4972865;28;20233;-71
2022/05/03 03:25:11;;;;;;;25.27;15.67;;;9.80;99.90;;;;;;4972490;28;20308;-71
2022/05/03 03:27:39;;;;;;;23.67;15.23;;;9.80;99.90;;;;;;4956528;28;20323;-72
2022/05/03 03:30:08;;;;;;;24.30;14.80;;;9.90;99.90;;;;;;4972680;28;20252;-71
2022/05/03 03:32:37;;;;;;;24.97;14.83;;;9.90;99.90;;;;;;4956590;28;20221;-71
2022/05/03 03:35:05;;;;;;;20.87;13.50;;;9.90;99.90;;;;;;4956470;28;20365;-72
2022/05/03 03:37:36;;;;;;;21.13;13.47;;;9.90;99.90;;;;;;4956632;28;20640;-71
2022/05/03 03:40:04;;;;;;;22.30;13.53;;;10.00;99.90;;;;;;4956239;28;20590;-72
2022/05/03 03:42:31;;;;;;;21.93;13.20;;;10.00;99.90;;;;;;4956320;28;20236;-71
2022/05/03 03:45:07;;;;;;;20.70;11.93;;;10.00;99.90;;;;;;4956237;28;20292;-71
2022/05/03 03:47:39;;;;;;;19.60;11.37;;;10.10;99.90;;;;;;4956349;28;20229;-71
2022/05/03 03:50:07;;;;;;;17.97;11.63;;;10.10;99.90;;;;;;5020384;28;20692;-72
2022/05/03 03:52:35;;;;;;;17.60;11.63;;;10.20;99.90;;;;;;5035462;28;20648;-71
2022/05/03 03:55:03;;;;;;;20.57;11.17;;;10.20;99.90;;;;;;5035217;28;20208;-71
2022/05/03 03:57:35;;;;;;;17.07;10.27;;;10.20;99.90;;;;;;5036214;28;20264;-72
2022/05/03 04:00:14;;;;;;;17.50;10.57;;;10.20;99.90;;;;;;5041511;28;20297;-72
2022/05/03 04:02:43;;;;;;;16.30;10.03;;;10.20;99.90;;;;;;5041932;28;20305;-71
2022/05/03 04:05:14;;;;;;;16.43;9.73;;;10.30;99.90;;;;;;5041739;28;20541;-71
2022/05/03 04:07:41;;;;;;;17.50;9.10;;;10.30;99.90;;;;;;5042064;28;20293;-72
2022/05/03 04:10:08;;;;;;;17.33;9.47;;;10.40;99.90;;;;;;5041871;28;20230;-72
2022/05/03 04:12:36;;;;;;;17.40;9.03;;;10.50;99.90;;;;;;5059769;28;20186;-73
2022/05/03 04:15:03;;;;;;;14.80;8.63;;;10.50;99.90;;;;;;5041916;28;20207;-73
2022/05/03 04:17:30;;;;;;;18.37;9.33;;;10.50;99.90;;;;;;5042125;28;20522;-73
2022/05/03 04:19:58;;;;;;;16.90;9.73;;;10.60;99.90;;;;;;5041741;28;20301;-73
2022/05/03 04:22:28;;;;;;;15.77;9.77;;;10.70;99.90;;;;;;5041956;28;20194;-73
2022/05/03 04:24:55;;;;;;;15.20;9.60;;;10.70;99.90;;;;;;5041673;28;20234;-73
2022/05/03 04:27:23;;;;;;;17.27;9.53;;;10.80;99.90;;;;;;5041634;28;20732;-76
2022/05/03 04:29:51;;;;;;;18.47;10.20;;;10.80;99.90;;;;;;5041773;28;20218;-73
2022/05/03 04:32:20;;;;;;;16.97;8.97;;;10.80;99.90;;;;;;5041997;28;20199;-73
2022/05/03 04:34:47;;;;;;;16.23;8.90;;;10.80;99.90;;;;;;5041350;28;20238;-73
2022/05/03 04:37:15;;;;;;;16.90;8.73;;;10.80;99.90;;;;;;5041753;28;20661;-73
2022/05/03 04:39:42;;;;;;;15.33;8.57;;;10.80;99.90;;;;;;5041537;28;20263;-73
2022/05/03 04:42:10;;;;;;;14.17;8.43;;;10.80;99.90;;;;;;5041673;28;20720;-73
2022/05/03 04:44:37;;;;;;;14.67;7.97;;;10.90;99.90;;;;;;5042032;28;20222;-73
2022/05/03 04:47:05;;;;;;;14.33;8.10;;;11.00;99.90;;;;;;5041506;28;20195;-73
2022/05/03 04:49:32;;;;;;;14.90;8.43;;;11.00;99.90;;;;;;5025113;28;20198;-73
2022/05/03 04:51:59;;;;;;;14.47;8.47;;;11.10;99.90;;;;;;5041722;28;20207;-73
2022/05/03 04:54:26;;;;;;;11.53;7.30;;;11.20;99.90;;;;;;5041518;28;20285;-73
2022/05/03 04:57:03;;;;;;;14.17;7.97;;;11.20;99.90;;;;;;5041326;28;20560;-73
2022/05/03 04:59:30;;;;;;;15.47;8.00;;;11.30;99.90;;;;;;5041635;28;20618;-73
2022/05/03 05:01:57;;;;;;;11.00;6.97;;;11.50;99.90;;;;;;5059074;28;20582;-73
2022/05/03 05:04:24;;;;;;;11.50;7.17;;;11.40;99.90;;;;;;5040949;28;20236;-74
2022/05/03 05:06:51;;;;;;;12.93;6.63;;;11.40;99.90;;;;;;5041478;28;20306;-73
2022/05/03 05:09:20;;;;;;;11.60;7.07;;;11.30;99.90;;;;;;5041630;28;20194;-72
2022/05/03 05:11:48;;;;;;;10.50;6.40;;;11.40;99.90;;;;;;5037770;28;20226;-71
2022/05/03 05:14:19;;;;;;;10.53;6.60;;;11.40;99.90;;;;;;5038007;28;20237;-72
2022/05/03 05:16:48;;;;;;;11.10;6.70;;;11.40;99.90;;;;;;5038173;28;20890;-71
2022/05/03 05:19:15;;;;;;;11.67;6.53;;;11.40;99.90;;;;;;5038160;28;20640;-72
2022/05/03 05:21:42;;;;;;;13.67;5.90;;;11.50;99.90;;;;;;5037881;28;20636;-72
2022/05/03 05:24:11;;;;;;;9.77;5.93;;;11.40;99.90;;;;;;5037663;28;20294;-72
2022/05/03 05:26:39;;;;;;;13.10;5.50;;;11.50;99.90;;;;;;5038177;28;20206;-71
2022/05/03 05:29:06;;;;;;;8.47;4.73;;;11.70;99.90;;;;;;5055617;28;20618;-72
2022/05/03 05:31:34;;;;;;;8.20;4.70;;;11.80;99.90;;;;;;5037625;28;20313;-71
2022/05/03 05:34:02;;;;;;;7.90;5.03;;;11.90;99.90;;;;;;5037980;28;20230;-71
2022/05/03 05:36:29;;;;;;;6.97;4.50;;;11.70;99.90;;;;;;5037723;28;20209;-72
2022/05/03 05:38:56;;;;;;;7.10;4.17;;;11.60;99.90;;;;;;5038014;28;20293;-71
2022/05/03 05:41:23;;;;;;;7.27;4.30;;;11.50;99.90;;;;;;5037961;28;20319;-71
2022/05/03 05:43:50;;;;;;;6.83;4.50;;;11.60;99.90;;;;;;5037585;28;20195;-70
2022/05/03 05:46:17;;;;;;;7.90;4.70;;;11.60;99.90;;;;;;5037335;28;20289;-71
2022/05/03 05:48:45;;;;;;;8.43;4.60;;;11.60;99.90;;;;;;5037436;28;20628;-70
2022/05/03 05:51:14;;;;;;;9.30;4.40;;;11.50;99.90;;;;;;5037747;28;20229;-71
2022/05/03 05:53:42;;;;;;;7.13;4.27;;;11.60;99.90;;;;;;5037197;28;20207;-71
2022/05/03 05:56:09;;;;;;;7.70;4.37;;;11.70;99.90;;;;;;5037233;28;20226;-71
2022/05/03 05:58:37;;;;;;;6.80;4.60;;;11.80;99.90;;;;;;5055676;28;20210;-71
2022/05/03 06:01:04;;;;;;;7.47;4.47;;;12.00;99.90;;;;;;5037118;28;20238;-71
2022/05/03 06:03:33;;;;;;;10.47;4.30;;;12.00;99.90;;;;;;5020764;28;20233;-70
2022/05/03 06:06:00;;;;;;;9.87;4.60;;;12.00;99.90;;;;;;5037085;28;20293;-71
2022/05/03 06:08:27;;;;;;;10.03;5.20;;;12.00;99.90;;;;;;5055169;28;20253;-70
2022/05/03 06:10:58;;;;;;;7.60;4.00;;;12.20;99.90;;;;;;5037151;28;20313;-71
2022/05/03 06:13:25;;;;;;;6.10;3.90;;;12.40;99.90;;;;;;5036805;28;20237;-71
2022/05/03 06:15:54;;;;;;;6.93;4.40;;;12.60;99.90;;;;;;5036846;28;20199;-71
2022/05/03 06:18:22;;;;;;;7.97;4.10;;;12.50;99.90;;;;;;5037164;28;20230;-72
2022/05/03 06:20:50;;;;;;;6.23;4.17;;;12.40;99.90;;;;;;5037163;28;20230;-71
2022/05/03 06:23:17;;;;;;;10.33;4.37;;;12.30;99.90;;;;;;5035740;28;20211;-71
2022/05/03 06:25:44;;;;;;;6.67;3.57;;;12.50;99.90;;;;;;5020151;28;20616;-71
2022/05/03 06:28:11;;;;;;;6.30;3.90;;;12.60;99.90;;;;;;5037058;28;20206;-71
2022/05/03 06:30:38;;;;;;;5.97;3.90;;;12.70;99.90;;;;;;5037129;28;20620;-72
2022/05/03 06:33:05;;;;;;;6.67;4.00;;;12.70;99.90;;;;;;5037010;28;20226;-71
2022/05/03 06:35:32;;;;;;;8.00;3.87;;;12.60;99.90;;;;;;5036490;28;20595;-71
2022/05/03 06:37:59;;;;;;;8.83;3.80;;;12.80;99.90;;;;;;5054436;28;20612;-71
2022/05/03 06:40:26;;;;;;;8.00;3.83;;;12.80;99.90;;;;;;5036547;28;20190;-71
2022/05/03 06:42:54;;;;;;;8.10;4.00;;;12.80;99.90;;;;;;5036691;28;20285;-71
2022/05/03 06:45:22;;;;;;;6.57;3.50;;;12.90;99.90;;;;;;5036461;28;20195;-71
2022/05/03 06:47:49;;;;;;;6.83;3.77;;;12.90;99.90;;;;;;5036980;28;20645;-71
2022/05/03 06:50:16;;;;;;;5.87;3.40;;;13.00;99.90;;;;;;5036547;28;20238;-71
2022/05/03 06:52:43;;;;;;;6.77;3.50;;;13.20;99.90;;;;;;5036228;28;20207;-71
2022/05/03 06:55:11;;;;;;;6.40;3.40;;;13.20;99.90;;;;;;5036327;28;20207;-72
2022/05/03 06:57:39;;;;;;;8.00;3.60;;;13.30;99.90;;;;;;5035946;28;20219;-72
2022/05/03 07:00:07;;;;;;;6.10;3.27;;;13.50;99.90;;;;;;5054060;28;20184;-72
2022/05/03 07:02:35;;;;;;;6.23;3.33;;;13.70;99.50;;;;;;5036124;28;20227;-73
2022/05/03 07:05:04;;;;;;;6.40;3.50;;;13.60;97.50;;;;;;5035993;28;20302;-72
2022/05/03 07:07:31;;;;;;;4.23;3.00;;;13.60;98.20;;;;;;5053801;28;20727;-72
2022/05/03 07:10:01;;;;;;;6.20;3.37;;;13.60;98.60;;;;;;5035915;28;20215;-72
2022/05/03 07:12:29;;;;;;;6.77;3.20;;;13.70;98.30;;;;;;5035730;28;20201;-72
2022/05/03 07:15:01;;;;;;;7.83;3.30;;;13.70;98.10;;;;;;5035763;28;20202;-72
2022/05/03 07:22:58;;;;;;;6.20;3.07;;;14.00;97.80;;;;;;5035683;28;20278;-79
2022/05/03 07:25:26;;;;;;;6.20;3.03;;;14.20;97.20;;;;;;5053482;28;20195;-82
2022/05/03 07:27:53;;;;;;;5.90;3.17;;;14.30;96.70;;;;;;5035991;28;20216;-80
2022/05/03 07:30:23;;;;;;;4.43;2.80;;;14.30;97.30;;;;;;5033869;28;20202;-71
2022/05/03 07:32:50;;;;;;;9.07;3.60;;;14.50;96.30;;;;;;5028590;28;20195;-80
2022/05/03 07:35:17;;;;;;;5.47;3.30;;;14.60;95.50;;;;;;5022995;28;20246;-80
2022/05/03 07:37:44;;;;;;;6.50;3.50;;;14.60;94.50;;;;;;5035817;28;20529;-79
2022/05/03 07:40:11;;;;;;;6.30;3.30;;;14.70;95.90;;;;;;5032664;28;20226;-81
2022/05/03 07:42:39;;;;;;;6.73;3.20;;;14.80;95.90;;;;;;5035262;28;20298;-77
2022/05/03 07:45:06;;;;;;;5.93;3.50;;;14.60;94.10;;;;;;5033837;28;20234;-80
2022/05/03 07:47:33;;;;;;;7.23;3.30;;;14.70;94.30;;;;;;5016017;28;20187;-81
2022/05/03 07:50:00;;;;;;;6.50;3.63;;;14.50;93.60;;;;;;5016048;28;20299;-83
2022/05/03 07:52:27;;;;;;;5.27;3.40;;;14.50;93.70;;;;;;5015535;28;20263;-83
2022/05/03 07:54:55;;;;;;;5.17;3.63;;;14.50;93.70;;;;;;5015531;28;20290;-83
2022/05/03 07:57:22;;;;;;;5.50;3.33;;;14.50;93.60;;;;;;5015785;28;20219;-70
2022/05/03 07:59:54;;;;;;;5.30;3.03;;;14.50;93.30;;;;;;5014992;28;20260;-80
2022/05/03 08:02:22;;;;;;;6.00;3.37;;;14.70;94.10;;;;;;5015826;28;20281;-82
2022/05/03 08:04:51;;;;;;;11.50;6.23;;;15.00;93.60;;;;;;5015112;28;20249;-77
2022/05/03 08:07:19;;;;;;;6.00;3.70;;;15.10;92.50;;;;;;5033079;28;20229;-78
2022/05/03 08:09:47;;;;;;;5.27;3.60;;;15.70;90.90;;;;;;5033542;28;20610;-70
2022/05/03 08:12:15;;;;;;;5.17;2.93;;;16.90;87.80;;;;;;5015117;28;20754;-70
2022/05/03 08:14:42;;;;;;;6.77;3.40;;;18.00;83.40;;;;;;5015372;28;20697;-70
2022/05/03 08:17:09;;;;;;;7.07;3.10;;;18.50;78.80;;;;;;5015285;28;20258;-71
2022/05/03 08:19:36;;;;;;;8.57;3.57;;;19.20;76.00;;;;;;5015204;28;20282;-71
2022/05/03 08:22:04;;;;;;;5.60;3.60;;;19.50;71.50;;;;;;5015511;28;20208;-73
2022/05/03 08:24:31;;;;;;;5.27;3.17;;;19.80;69.20;;;;;;5015232;28;20241;-72
2022/05/03 08:26:59;;;;;;;5.93;3.30;;;20.30;66.40;;;;;;5015232;28;20227;-71
2022/05/03 08:29:27;;;;;;;5.80;3.67;;;20.30;64.70;;;;;;5031549;28;20203;-71
2022/05/03 08:31:54;;;;;;;5.43;3.77;;;19.90;60.90;;;;;;5015351;28;20219;-73
2022/05/03 08:34:21;;;;;;;6.23;3.53;;;19.90;61.60;;;;;;5015201;28;20196;-74
2022/05/03 08:42:01;;;;;;;4.87;3.20;;;19.50;62.30;;;;;;5015093;28;20294;-73
2022/05/03 08:42:21;;;;;;;7.30;3.60;;;19.80;60.30;;;;;;5015420;28;20531;-74
2022/05/03 08:44:48;;;;;;;6.27;3.70;;;19.90;61.50;;;;;;5014792;28;20223;-73
2022/05/03 08:47:19;;;;;;;5.07;3.30;;;20.00;61.00;;;;;;5018781;28;20298;-73
2022/05/03 08:49:49;;;;;;;3.90;3.00;;;20.30;59.90;;;;;;5019397;28;20195;-76
2022/05/03 08:52:17;;;;;;;8.03;3.73;;;19.40;59.90;;;;;;5018728;28;20218;-75
2022/05/03 08:54:45;;;;;;;7.03;4.00;;;18.70;60.90;;;;;;5018879;28;20238;-73
2022/05/03 08:57:12;;;;;;;7.07;3.83;;;18.50;62.60;;;;;;5018436;28;20716;-73
2022/05/03 08:59:39;;;;;;;4.70;3.30;;;19.40;62.80;;;;;;5018570;28;20228;-74
2022/05/03 09:02:06;;;;;;;4.67;3.33;;;20.30;61.00;;;;;;5018283;28;20223;-73
2022/05/03 09:04:33;;;;;;;5.53;3.30;;;20.60;58.10;;;;;;5018336;28;20199;-73
2022/05/03 09:07:19;;;;;;;6.10;3.47;;;20.40;58.90;;;;;;5018323;28;20227;-74
2022/05/03 09:09:48;;;;;;;7.60;3.30;;;20.00;56.90;;;;;;5018631;28;20290;-74
2022/05/03 09:12:28;;;;;;;5.77;3.00;;;19.90;59.30;;;;;;5018217;28;20708;-74
2022/05/03 09:15:00;;;;;;;4.70;3.40;;;20.50;58.80;;;;;;5035918;28;20187;-73
2022/05/03 09:17:37;;;;;;;8.13;3.60;;;20.70;58.30;;;;;;5018300;28;20653;-73
2022/05/03 09:26:09;;;;;;;5.87;3.40;;;19.40;57.80;;;;;;5017945;28;20609;-74
2022/05/03 09:29:03;;;;;;;11.17;3.67;;;19.70;58.60;;;;;;5017941;28;20223;-74
2022/05/03 09:31:41;;;;;;;7.23;3.60;;;19.40;58.70;;;;;;5010115;28;20227;-74
2022/05/03 09:34:26;;;;;;;6.43;3.40;;;19.20;60.40;;;;;;5017999;28;20199;-73
2022/05/03 09:37:09;;;;;;;6.27;3.30;;;19.50;57.60;;;;;;5017768;28;20545;-73
2022/05/03 09:39:46;;;;;;;5.17;2.80;;;18.80;58.80;;;;;;5035504;28;20188;-74
2022/05/03 09:42:18;;;;;;;5.80;2.90;;;19.20;57.90;;;;;;5017766;28;20254;-75
2022/05/03 09:44:58;;;;;;;5.23;2.97;;;19.40;58.40;;;;;;5017889;28;20192;-74
2022/05/03 09:47:27;;;;;;;7.43;2.80;;;20.00;57.20;;;;;;5035400;28;20246;-75
2022/05/03 09:49:55;;;;;;;6.07;3.10;;;20.00;56.40;;;;;;5035339;28;20199;-74
2022/05/03 09:52:30;;;;;;;5.17;3.07;;;20.20;56.00;;;;;;5017723;28;20234;-74
2022/05/03 09:55:04;;;;;;;4.50;2.90;;;20.70;55.00;;;;;;5039571;28;20586;-75
2022/05/03 09:57:34;;;;;;;5.60;2.60;;;20.20;54.80;;;;;;5034482;28;20210;-74
2022/05/03 10:00:06;;;;;;;4.83;3.00;;;20.60;57.20;;;;;;5017519;28;20200;-74
2022/05/03 10:02:33;;;;;;;6.73;3.10;;;21.30;55.80;;;;;;5025359;28;20585;-75
2022/05/03 10:05:00;;;;;;;7.23;3.10;;;21.80;53.80;;;;;;5037125;28;20230;-72
2022/05/03 10:07:29;;;;;;;5.90;3.00;;;21.30;53.30;;;;;;5037142;28;20195;-73
2022/05/03 10:09:56;;;;;;;3.57;2.67;;;21.80;53.80;;;;;;5037406;28;20198;-74
2022/05/03 10:12:23;;;;;;;5.43;3.10;;;22.50;54.10;;;;;;5035951;28;20257;-74
2022/05/03 10:14:50;;;;;;;8.10;3.23;;;22.00;51.70;;;;;;5017531;28;20227;-71
2022/05/03 10:20:39;;;;;;;4.07;2.77;;;21.40;52.60;;;;;;5022734;28;20653;-81
2022/05/03 10:23:32;;;;;;;5.70;2.70;;;21.20;55.10;;;;;;5055273;28;20277;-81
2022/05/03 10:26:05;;;;;;;4.90;2.73;;;21.70;53.90;;;;;;5037249;28;20195;-82
2022/05/03 10:29:07;;;;;;;7.27;3.10;;;21.70;53.60;;;;;;5033967;28;20223;-81
2022/05/03 10:31:53;;;;;;;7.80;2.93;;;21.40;52.90;;;;;;5017472;28;20234;-71
2022/05/03 10:34:39;;;;;;;3.93;2.63;;;21.00;53.20;;;;;;5016803;28;20669;-71
2022/05/03 10:37:07;;;;;;;4.30;3.17;;;21.50;52.80;;;;;;5035956;28;20199;-71
2022/05/03 10:39:43;;;;;;;6.30;2.67;;;21.70;52.80;;;;;;5029821;28;20195;-71
2022/05/03 10:42:12;;;;;;;4.17;2.83;;;22.10;53.10;;;;;;5016993;28;20797;-73
2022/05/03 10:44:56;;;;;;;6.50;2.73;;;21.40;52.00;;;;;;5033392;28;20211;-71
2022/05/03 10:47:49;;;;;;;6.50;2.50;;;20.90;53.10;;;;;;5034647;28;20211;-81
2022/05/03 10:50:16;;;;;;;6.33;2.73;;;21.50;53.10;;;;;;5038153;28;20199;-72
2022/05/03 10:52:44;;;;;;;6.83;2.50;;;20.90;52.30;;;;;;5023228;28;20329;-80
2022/05/03 10:55:13;;;;;;;4.13;2.60;;;21.40;53.30;;;;;;5021451;28;20188;-86
2022/05/03 10:58:18;;;;;;;5.73;2.47;;;21.00;52.50;;;;;;5030633;28;20223;-81
2022/05/03 11:01:07;;;;;;;7.43;2.40;;;21.60;53.40;;;;;;5035052;28;20191;-83
2022/05/03 11:03:48;;;;;;;4.23;2.90;;;22.50;52.60;;;;;;4995642;28;20220;-70
2022/05/03 11:06:26;;;;;;;6.55;3.85;;;23.40;51.40;;;;;;5014183;28;20601;-72
2022/05/03 11:09:09;;;;;;;5.93;2.40;;;24.10;51.70;;;;;;4996249;28;20246;-80
2022/05/03 11:11:42;;;;;;;5.80;2.53;;;23.60;48.60;;;;;;4996682;28;20243;-75
2022/05/03 11:14:21;;;;;;;5.45;2.60;;;22.90;48.50;;;;;;5001947;28;20239;-73
2022/05/03 11:16:51;;;;;;;7.85;3.13;;;22.20;48.70;;;;;;4996762;28;20196;-75
2022/05/03 11:19:23;;;;;;;4.53;2.67;;;21.80;49.80;;;;;;4996764;28;20200;-73
2022/05/03 11:21:51;;;;;;;4.30;2.63;;;21.10;52.40;;;;;;4996573;28;20208;-75
2022/05/03 11:24:23;;;;;;;3.93;2.83;;;20.70;52.70;;;;;;4996337;28;20705;-79
2022/05/03 11:26:54;;;;;;;6.00;3.00;;;21.00;51.80;;;;;;4997004;28;20291;-87
2022/05/03 11:29:27;;;;;;;4.23;2.80;;;20.80;51.50;;;;;;5014373;28;20251;-79
2022/05/03 11:31:54;;;;;;;4.67;3.30;;;22.20;52.10;;;;;;4996057;28;20212;-88
2022/05/03 11:34:22;;;;;;;4.03;3.17;;;22.80;50.10;;;;;;5012902;28;20207;-85
2022/05/03 11:36:50;;;;;;;6.90;3.40;;;23.10;49.70;;;;;;5033708;28;20279;-90
2022/05/03 11:39:18;;;;;;;6.33;3.63;;;22.80;50.10;;;;;;4999640;28;20203;-83
2022/05/03 11:41:47;;;;;;;5.00;3.90;;;22.70;50.90;;;;;;5033352;28;20242;-78
2022/05/03 11:44:15;;;;;;;5.50;4.10;;;21.70;51.30;;;;;;5015821;28;20287;-79
2022/05/03 11:46:45;;;;;;;8.27;4.47;;;21.40;52.10;;;;;;5015936;28;20206;-80
2022/05/03 11:49:15;;;;;;;6.87;3.97;;;21.80;52.20;;;;;;5016552;28;20674;-79
2022/05/03 11:57:22;;;;;;;5.88;4.68;;;23.10;50.20;;;;;;5019524;28;20230;-77
2022/05/03 11:59:51;;;;;;;5.95;4.50;;;22.60;50.30;;;;;;5016624;28;20191;-78
2022/05/03 12:02:22;;;;;;;4.63;3.97;;;22.10;50.70;;;;;;5015619;28;20230;-85
2022/05/03 12:05:04;;;;;;;5.27;4.30;;;22.50;52.30;;;;;;5012099;28;20202;-73
2022/05/03 12:07:38;;;;;;;5.65;4.32;;;22.40;50.70;;;;;;4995889;28;20204;-74
2022/05/03 12:10:29;;;;;;;8.07;4.80;;;22.30;52.60;;;;;;5018997;28;20564;-72
2022/05/03 12:13:17;;;;;;;5.63;4.30;;;22.40;50.40;;;;;;5012838;28;20216;-72
2022/05/03 12:15:57;;;;;;;7.27;4.67;;;22.10;51.30;;;;;;4995867;28;20700;-75
2022/05/03 12:18:31;;;;;;;6.20;4.60;;;21.90;51.90;;;;;;4995832;28;20204;-82
2022/05/03 12:20:59;;;;;;;7.30;4.17;;;21.50;52.80;;;;;;4998953;28;20282;-80
2022/05/03 12:23:39;;;;;;;5.32;4.22;;;22.00;53.70;;;;;;4999147;28;20231;-76
2022/05/03 12:26:16;;;;;;;5.93;4.38;;;22.50;56.30;;;;;;4999597;28;20291;-70
2022/05/03 12:28:50;;;;;;;6.63;4.57;;;21.50;59.10;;;;;;4999347;28;20254;-70
2022/05/03 12:31:19;;;;;;;5.53;4.20;;;21.20;61.80;;;;;;4999635;28;20235;-71
2022/05/03 12:33:54;;;;;;;4.60;4.03;;;20.40;60.50;;;;;;5010889;28;20269;-71
2022/05/03 12:36:36;;;;;;;3.90;3.50;;;20.40;61.90;;;;;;5024693;28;20183;-73
2022/05/03 12:39:13;;;;;;;3.90;3.47;;;20.30;58.90;;;;;;5012716;28;20196;-72
2022/05/03 12:42:00;;;;;;;4.90;3.10;;;20.70;63.10;;;;;;5009010;28;20226;-70
2022/05/03 12:44:29;;;;;;;4.90;3.40;;;21.00;61.20;;;;;;4998771;28;20200;-71
2022/05/03 12:47:05;;;;;;;5.30;3.60;;;21.10;58.40;;;;;;5015594;28;20294;-72
2022/05/03 12:49:33;;;;;;;6.37;3.40;;;20.40;59.20;;;;;;4998974;28;20645;-71
2022/05/03 12:52:01;;;;;;;4.77;3.40;;;19.40;58.50;;;;;;4998880;28;20274;-78
2022/05/03 12:54:29;;;;;;;4.63;2.90;;;19.60;64.20;;;;;;4998846;28;20216;-71
2022/05/03 12:59:43;;;;;;;3.00;2.47;;;20.60;63.10;;;;;;5016164;28;20290;-79
2022/05/03 13:02:10;;;;;;;3.00;2.57;;;20.10;57.30;;;;;;5008898;28;20711;-79
2022/05/03 13:04:37;;;;;;;3.90;2.33;;;19.80;57.90;;;;;;5061747;28;20182;-78
2022/05/03 13:07:04;;;;;;;4.90;3.17;;;20.00;61.80;;;;;;5058286;28;20268;-79
2022/05/03 13:09:31;;;;;;;4.67;2.50;;;19.90;57.30;;;;;;5072192;28;20600;-78
2022/05/03 13:11:59;;;;;;;5.13;2.40;;;20.70;58.20;;;;;;5035686;28;20636;-77
2022/05/03 13:14:28;;;;;;;4.23;2.43;;;21.00;57.70;;;;;;5055826;28;20197;-78
2022/05/03 13:16:56;;;;;;;5.27;2.67;;;21.10;57.00;;;;;;5055693;28;20274;-78
2022/05/03 13:19:23;;;;;;;3.80;2.00;;;21.10;56.90;;;;;;5037926;28;20195;-78
2022/05/03 13:21:51;;;;;;;4.90;2.30;;;21.40;56.40;;;;;;5037783;28;20236;-78
2022/05/03 13:24:18;;;;;;;3.67;2.10;;;20.90;52.80;;;;;;5037458;28;20203;-78
2022/05/03 13:26:45;;;;;;;6.23;2.40;;;21.20;59.00;;;;;;5037839;28;20245;-79
2022/05/03 13:29:14;;;;;;;4.13;2.40;;;21.70;57.40;;;;;;5037993;28;20647;-80
2022/05/03 13:31:43;;;;;;;3.77;2.10;;;21.70;54.10;;;;;;5037147;28;20203;-80
2022/05/03 13:34:13;;;;;;;4.00;2.07;;;21.80;55.50;;;;;;5030163;28;20190;-78
2022/05/03 13:42:13;;;;;;;3.80;2.00;;;22.50;54.00;;;;;;5057701;28;20255;-79
2022/05/03 13:44:44;;;;;;;5.30;2.15;;;22.70;52.30;;;;;;5075372;28;20270;-72